Time;durP1;ratioP1;P1;durP2;ratioP2;P2;SDS_P1;SDS_P2;PMS_P1;PMS_P2;Temp;Humidity;BMP_temperature;BMP_pressure;BME280_temperature;BME280_humidity;BME280_pressure;Samples;Min_cycle;Max_cycle;Signal;HPM_P1;HPM_P2
2022/10/31 00:04:26;;;;;;;;;13.67;12.00;;;;;15.91;100.00;101264.53;4938733;28;45401;-82
2022/10/31 00:06:52;;;;;;;;;14.00;13.00;;;;;15.94;100.00;101267.22;4939235;28;44857;-84
2022/10/31 00:09:18;;;;;;;;;11.00;11.00;;;;;15.92;100.00;101269.00;4937512;28;46622;-82
2022/10/31 00:11:43;;;;;;;;;13.67;11.00;;;;;15.96;100.00;101278.84;4937731;28;45530;-83
2022/10/31 00:14:09;;;;;;;;;10.67;10.67;;;;;15.93;100.00;101273.47;4938861;28;44790;-82
2022/10/31 00:16:37;;;;;;;;;10.00;10.00;;;;;15.89;100.00;101279.72;4937472;28;44895;-83
2022/10/31 00:19:07;;;;;;;;;10.00;7.00;;;;;15.85;100.00;101280.63;4953760;28;45369;-83
2022/10/31 00:21:33;;;;;;;;;7.67;7.67;;;;;15.83;100.00;101282.41;4938723;28;45334;-83
2022/10/31 00:24:01;;;;;;;;;9.00;8.00;;;;;15.80;100.00;101276.13;4938908;28;45234;-83
2022/10/31 00:26:27;;;;;;;;;7.33;7.33;;;;;15.72;100.00;101264.50;4938466;28;45738;-83
2022/10/31 00:28:53;;;;;;;;;10.67;9.00;;;;;15.76;100.00;101277.03;4955710;28;45445;-83
2022/10/31 00:31:21;;;;;;;;;12.00;9.00;;;;;15.75;100.00;101280.63;4956762;28;45382;-83
2022/10/31 00:33:52;;;;;;;;;8.00;7.33;;;;;15.73;100.00;101276.13;4941302;28;45419;-83
2022/10/31 00:36:20;;;;;;;;;9.33;8.67;;;;;15.72;100.00;101271.63;4956819;28;44782;-83
2022/10/31 00:38:46;;;;;;;;;8.00;8.00;;;;;15.68;100.00;101268.03;4955545;28;46795;-83
2022/10/31 00:41:14;;;;;;;;;12.00;10.67;;;;;15.69;100.00;101272.50;4939393;28;44918;-83
2022/10/31 00:43:39;;;;;;;;;13.00;9.00;;;;;15.66;100.00;101272.50;4955711;28;45448;-83
2022/10/31 00:46:05;;;;;;;;;13.00;9.67;;;;;15.60;100.00;101264.47;4956362;28;44794;-83
2022/10/31 00:48:30;;;;;;;;;9.00;9.00;;;;;15.58;100.00;101266.25;4938828;28;47779;-83
2022/10/31 00:50:59;;;;;;;;;10.00;9.00;;;;;15.55;100.00;101267.13;4955426;28;44735;-83
2022/10/31 00:53:24;;;;;;;;;9.00;9.00;;;;;15.61;100.00;101266.22;4957406;28;45341;-83
2022/10/31 00:55:50;;;;;;;;;10.00;8.67;;;;;15.65;100.00;101262.66;4939958;28;44900;-82
2022/10/31 00:58:15;;;;;;;;;8.67;8.67;;;;;15.71;100.00;101268.03;4955612;28;46566;-82
2022/10/31 01:00:41;;;;;;;;;9.00;9.00;;;;;15.68;100.00;101251.06;4955861;28;44892;-82
2022/10/31 01:03:09;;;;;;;;;10.00;8.33;;;;;15.77;100.00;101265.44;4956237;28;45024;-82
2022/10/31 01:05:35;;;;;;;;;9.00;9.00;;;;;15.77;100.00;101265.44;4939578;28;45409;-82
2022/10/31 01:08:00;;;;;;;;;9.33;8.00;;;;;15.76;100.00;101258.25;4938873;28;48221;-82
2022/10/31 01:10:27;;;;;;;;;9.00;8.33;;;;;15.77;100.00;101249.34;4955776;28;44768;-82
2022/10/31 01:12:52;;;;;;;;;8.00;8.00;;;;;15.68;100.00;101243.91;4956356;28;45434;-82
2022/10/31 01:15:22;;;;;;;;;8.00;8.00;;;;;15.68;100.00;101241.22;4954644;28;45755;-83
2022/10/31 01:17:48;;;;;;;;;8.67;7.67;;;;;15.72;100.00;101242.13;4934548;28;47396;-82
2022/10/31 01:20:15;;;;;;;;;8.00;7.00;;;;;15.71;100.00;101238.53;4935804;28;45099;-82
2022/10/31 01:22:42;;;;;;;;;6.33;6.33;;;;;15.70;100.00;101231.41;4935285;28;45484;-82
2022/10/31 01:25:08;;;;;;;;;9.00;8.00;;;;;15.73;100.00;101228.75;4936571;28;44856;-81
2022/10/31 01:27:34;;;;;;;;;10.33;9.00;;;;;15.76;100.00;101228.75;4935942;28;46856;-82
2022/10/31 01:30:00;;;;;;;;;10.00;9.00;;;;;15.82;100.00;101221.63;4937572;28;45831;-82
2022/10/31 01:32:28;;;;;;;;;13.67;10.00;;;;;15.84;100.00;101214.47;4953786;28;44811;-82
2022/10/31 01:34:58;;;;;;;;;8.00;8.00;;;;;15.87;100.00;101215.34;4937390;28;45544;-81
2022/10/31 01:37:24;;;;;;;;;8.67;8.67;;;;;15.90;100.00;101207.31;4937552;28;45801;-83
2022/10/31 01:39:49;;;;;;;;;9.67;7.33;;;;;15.99;100.00;101219.81;4937981;28;45385;-82
2022/10/31 01:42:19;;;;;;;;;8.00;7.00;;;;;16.03;100.00;101218.03;4937990;28;44739;-82
2022/10/31 01:44:55;;;;;;;;;7.67;7.67;;;;;16.05;100.00;101208.19;4952394;28;44883;-82
2022/10/31 01:47:33;;;;;;;;;9.00;9.00;;;;;16.06;100.00;101196.53;4951851;28;47839;-83
2022/10/31 01:50:02;;;;;;;;;9.00;9.00;;;;;16.08;100.00;101201.03;4936645;28;44917;-82
2022/10/31 01:52:36;;;;;;;;;9.00;7.67;;;;;16.11;100.00;101201.00;4951257;28;44883;-83
2022/10/31 01:55:07;;;;;;;;;11.67;10.00;;;;;16.10;100.00;101191.19;4936640;28;45393;-82
2022/10/31 01:57:35;;;;;;;;;11.00;8.00;;;;;16.15;100.00;101199.22;4934936;28;48413;-82
2022/10/31 02:00:07;;;;;;;;;8.67;8.67;;;;;16.15;100.00;101189.38;4934779;28;45433;-82
2022/10/31 02:02:33;;;;;;;;;10.33;7.33;;;;;16.18;100.00;101189.38;4935812;28;44801;-82
2022/10/31 02:05:01;;;;;;;;;8.00;8.00;;;;;16.17;100.00;101198.31;4935255;28;45299;-83
2022/10/31 02:07:33;;;;;;;;;11.00;9.33;;;;;16.22;100.00;101192.03;4935839;28;45346;-82
2022/10/31 02:10:00;;;;;;;;;14.00;12.33;;;;;16.18;100.00;101186.69;4917783;28;45434;-81
2022/10/31 02:15:53;;;;;;;;;11.00;8.00;;;;;16.20;100.00;101203.69;4939301;28;44799;-81
2022/10/31 02:18:20;;;;;;;;;9.33;9.33;;;;;16.12;100.00;101191.19;4947829;28;45616;-82
2022/10/31 02:20:45;;;;;;;;;10.00;9.00;;;;;16.15;100.00;101193.84;4957225;28;45357;-82
2022/10/31 02:23:28;;;;;;;;;9.00;9.00;;;;;16.16;100.00;101187.63;4942211;28;45329;-82
2022/10/31 02:26:20;;;;;;;;;9.67;9.67;;;;;16.11;100.00;101178.66;4942404;28;45350;-82
2022/10/31 02:29:04;;;;;;;;;10.33;9.00;;;;;16.11;100.00;101176.84;4958523;28;45424;-82
2022/10/31 02:31:33;;;;;;;;;10.00;9.00;;;;;16.12;100.00;101178.66;4941395;28;46037;-82
2022/10/31 02:34:19;;;;;;;;;13.67;10.00;;;;;16.06;100.00;101165.25;4941726;28;44820;-81
2022/10/31 02:37:11;;;;;;;;;7.00;7.00;;;;;16.12;100.00;101173.31;4959169;28;44764;-82
2022/10/31 02:40:03;;;;;;;;;12.00;8.67;;;;;16.07;100.00;101161.66;4957545;28;46634;-82
2022/10/31 02:42:38;;;;;;;;;8.67;7.67;;;;;16.05;100.00;101162.56;4931511;28;45507;-81
2022/10/31 02:45:21;;;;;;;;;9.00;9.00;;;;;16.11;100.00;101166.13;4957732;28;44817;-82
2022/10/31 02:47:54;;;;;;;;;8.67;8.67;;;;;16.13;100.00;101160.75;4958461;28;45492;-82
2022/10/31 02:50:28;;;;;;;;;8.67;7.67;;;;;16.14;100.00;101154.53;4945087;28;48075;-83
2022/10/31 02:52:54;;;;;;;;;10.33;10.33;;;;;16.16;100.00;101153.59;4938862;28;45465;-82
2022/10/31 02:55:22;;;;;;;;;9.00;8.00;;;;;16.24;100.00;101145.53;4939479;28;44932;-83
2022/10/31 02:57:50;;;;;;;;;12.67;10.33;;;;;16.26;100.00;101148.19;4921724;28;44965;-81
2022/10/31 03:00:16;;;;;;;;;15.33;10.33;;;;;16.22;100.00;101135.69;4938158;28;44988;-83
2022/10/31 03:02:53;;;;;;;;;9.33;8.67;;;;;16.32;100.00;101153.56;4921506;28;45471;-83
2022/10/31 03:05:29;;;;;;;;;9.33;9.00;;;;;16.30;100.00;101156.25;4938264;28;45599;-82
2022/10/31 03:08:12;;;;;;;;;11.00;9.00;;;;;16.29;100.00;101151.78;4921284;28;44881;-82
2022/10/31 03:10:47;;;;;;;;;10.67;9.00;;;;;16.25;100.00;101141.94;4919970;28;48276;-83
2022/10/31 03:13:33;;;;;;;;;12.00;9.00;;;;;16.29;100.00;101146.41;4920333;28;44851;-83
2022/10/31 03:16:09;;;;;;;;;11.00;11.00;;;;;16.23;100.00;101137.50;4936973;28;45488;-83
2022/10/31 03:18:40;;;;;;;;;12.00;11.00;;;;;16.22;100.00;101138.38;4916567;29;45493;-83
2022/10/31 03:21:10;;;;;;;;;9.33;7.67;;;;;16.19;100.00;101141.97;4918171;28;45566;-82
2022/10/31 03:23:38;;;;;;;;;9.67;9.67;;;;;16.18;100.00;101146.44;4917033;28;44877;-82
2022/10/31 03:26:07;;;;;;;;;11.00;11.00;;;;;16.13;100.00;101132.13;4917067;28;45419;-83
2022/10/31 03:28:49;;;;;;;;;13.67;13.00;;;;;16.17;100.00;101133.03;4919406;28;45220;-83
2022/10/31 03:31:18;;;;;;;;;13.33;10.33;;;;;16.18;100.00;101124.97;4933348;28;47140;-82
2022/10/31 03:33:51;;;;;;;;;11.67;10.33;;;;;16.15;100.00;101121.41;4917196;28;45406;-82
2022/10/31 03:36:18;;;;;;;;;9.00;9.00;;;;;16.15;100.00;101124.97;4933710;28;45665;-82
2022/10/31 03:38:46;;;;;;;;;10.33;9.33;;;;;16.16;100.00;101116.03;4917864;28;45979;-82
2022/10/31 03:41:19;;;;;;;;;11.67;10.67;;;;;16.18;100.00;101119.63;4917093;28;46842;-82
2022/10/31 03:43:55;;;;;;;;;9.00;9.00;;;;;16.18;100.00;101113.38;4918463;28;45420;-82
2022/10/31 03:46:21;;;;;;;;;9.00;9.00;;;;;16.06;100.00;101095.50;4916338;28;44807;-82
2022/10/31 03:48:46;;;;;;;;;13.33;10.00;;;;;16.14;100.00;101104.41;4917995;28;45412;-81
2022/10/31 03:51:30;;;;;;;;;15.00;13.33;;;;;16.13;100.00;101099.94;4916900;28;46614;-81
2022/10/31 03:54:08;;;;;;;;;14.00;12.33;;;;;16.07;100.00;101104.44;4917589;28;45486;-81
2022/10/31 03:56:41;;;;;;;;;15.33;12.33;;;;;15.95;100.00;101095.50;4917437;28;45282;-83
2022/10/31 03:59:33;;;;;;;;;12.00;12.00;;;;;15.96;100.00;101096.44;4918045;28;45330;-81
2022/10/31 04:02:05;;;;;;;;;11.00;10.00;;;;;15.93;100.00;101094.63;4841868;29;47209;-82
2022/10/31 04:04:32;;;;;;;;;13.67;13.33;;;;;15.90;100.00;101085.72;4857570;29;46527;-82
2022/10/31 04:07:01;;;;;;;;;13.00;10.00;;;;;15.98;100.00;101094.63;4859272;29;45579;-82
2022/10/31 04:09:29;;;;;;;;;13.33;11.67;;;;;15.94;100.00;101084.81;4859507;29;44864;-82
2022/10/31 04:11:58;;;;;;;;;9.00;9.00;;;;;16.03;100.00;101092.81;4859698;29;48136;-82
2022/10/31 04:14:26;;;;;;;;;11.00;10.00;;;;;15.99;100.00;101086.56;4829289;29;44870;-82
2022/10/31 04:16:51;;;;;;;;;15.00;11.67;;;;;16.05;100.00;101101.75;4842462;29;44819;-82
2022/10/31 04:19:17;;;;;;;;;8.67;7.00;;;;;16.01;100.00;101078.50;4826099;29;44951;-82
2022/10/31 04:21:46;;;;;;;;;8.00;7.00;;;;;16.10;100.00;101099.97;4839674;29;45349;-82
2022/10/31 04:24:12;;;;;;;;;7.00;7.00;;;;;16.12;100.00;101100.84;4840932;29;45664;-82
2022/10/31 04:26:38;;;;;;;;;8.00;7.67;;;;;16.13;100.00;101097.25;4826367;29;45523;-82
2022/10/31 04:29:03;;;;;;;;;6.00;4.00;;;;;16.13;100.00;101089.19;4826025;29;45501;-82
2022/10/31 04:31:29;;;;;;;;;8.67;8.67;;;;;16.19;100.00;101093.66;4841341;29;46796;-81
2022/10/31 04:33:55;;;;;;;;;11.33;10.00;;;;;16.19;100.00;101094.56;4841106;29;45454;-82
2022/10/31 04:36:23;;;;;;;;;10.33;8.33;;;;;16.20;100.00;101090.97;4841629;29;44812;-82
2022/10/31 04:38:49;;;;;;;;;10.67;9.00;;;;;16.18;100.00;101084.72;4883704;29;45343;-83
2022/10/31 04:41:17;;;;;;;;;8.00;8.00;;;;;16.14;100.00;101080.28;4919062;28;45194;-82
2022/10/31 04:43:43;;;;;;;;;9.67;7.67;;;;;16.13;100.00;101073.09;4934521;28;44848;-82
2022/10/31 04:46:08;;;;;;;;;8.67;8.67;;;;;16.08;100.00;101074.94;4918123;28;44900;-81
2022/10/31 04:48:33;;;;;;;;;8.33;8.33;;;;;16.06;100.00;101071.34;4934961;28;45264;-82
2022/10/31 04:51:00;;;;;;;;;13.00;12.00;;;;;16.00;100.00;101057.97;4920256;29;44907;-82
2022/10/31 04:53:26;;;;;;;;;9.00;9.00;;;;;16.04;100.00;101061.50;4930081;28;44820;-82
2022/10/31 04:55:51;;;;;;;;;17.00;9.67;;;;;15.99;100.00;101045.44;4938722;28;44837;-83
2022/10/31 04:58:20;;;;;;;;;9.33;8.33;;;;;16.06;100.00;101052.56;4936464;28;44852;-83
2022/10/31 05:00:45;;;;;;;;;12.00;12.00;;;;;16.08;100.00;101061.50;4936449;28;47045;-82
2022/10/31 05:03:10;;;;;;;;;16.67;16.00;;;;;16.11;100.00;101055.22;4937953;28;45351;-82
2022/10/31 05:05:42;;;;;;;;;17.33;14.00;;;;;16.15;100.00;101046.28;4938888;28;45388;-82
2022/10/31 05:08:08;;;;;;;;;16.67;15.33;;;;;16.14;100.00;101045.38;4937079;28;45423;-82
2022/10/31 05:10:34;;;;;;;;;18.33;16.67;;;;;16.17;100.00;101048.03;4937482;28;45666;-83
2022/10/31 05:13:03;;;;;;;;;17.33;17.33;;;;;16.19;100.00;101046.25;4952405;28;44838;-83
2022/10/31 05:15:28;;;;;;;;;21.00;19.67;;;;;16.18;100.00;101047.16;4936664;28;44847;-83
2022/10/31 05:17:55;;;;;;;;;19.00;17.67;;;;;16.13;100.00;101031.97;4937221;28;44931;-82
2022/10/31 05:20:24;;;;;;;;;22.33;22.00;;;;;16.20;100.00;101041.78;4955549;28;45477;-82
2022/10/31 05:22:54;;;;;;;;;18.33;18.33;;;;;16.17;100.00;101023.91;4955219;28;44729;-82
2022/10/31 05:25:23;;;;;;;;;14.67;14.67;;;;;16.23;100.00;101041.75;4939573;28;44825;-82
2022/10/31 05:27:51;;;;;;;;;21.00;19.33;;;;;16.19;100.00;101019.41;4956684;28;44721;-82
2022/10/31 05:30:20;;;;;;;;;23.33;22.67;;;;;16.19;100.00;101030.16;4956109;28;47315;-83
2022/10/31 05:32:48;;;;;;;;;30.33;21.00;;;;;16.20;100.00;101029.25;4957258;28;45455;-83
2022/10/31 05:35:20;;;;;;;;;24.33;24.00;;;;;16.15;100.00;101017.63;4939082;28;44795;-83
2022/10/31 05:37:46;;;;;;;;;29.00;24.33;;;;;16.15;100.00;101012.28;4956236;28;45456;-82
2022/10/31 05:43:37;;;;;;;;;28.00;25.67;;;;;16.10;100.00;101007.84;4956697;28;44925;-82
2022/10/31 05:46:03;;;;;;;;;28.33;27.33;;;;;16.11;100.00;101010.50;4937053;28;45601;-82
2022/10/31 05:48:28;;;;;;;;;20.00;19.00;;;;;16.07;100.00;101007.84;4954032;28;45310;-83
2022/10/31 05:50:55;;;;;;;;;18.00;17.00;;;;;16.07;100.00;101013.22;4937905;28;47251;-82
2022/10/31 05:53:21;;;;;;;;;17.00;17.00;;;;;16.11;100.00;101015.00;4955624;28;45385;-81
2022/10/31 05:55:47;;;;;;;;;17.33;16.67;;;;;16.06;100.00;101006.97;4937560;28;44850;-81
2022/10/31 05:58:30;;;;;;;;;13.67;11.33;;;;;16.04;100.00;101008.75;4955701;28;45463;-83
2022/10/31 06:00:56;;;;;;;;;17.67;17.67;;;;;15.99;100.00;101006.06;4954683;28;46942;-82
2022/10/31 06:03:22;;;;;;;;;17.33;15.67;;;;;15.96;100.00;100999.84;4956006;28;45421;-82
2022/10/31 06:05:47;;;;;;;;;16.00;15.67;;;;;15.92;100.00;100998.09;4956547;28;45254;-82
2022/10/31 06:08:13;;;;;;;;;14.00;14.00;;;;;15.87;100.00;100984.66;4939398;28;44908;-81
2022/10/31 06:10:42;;;;;;;;;15.67;14.67;;;;;15.95;100.00;100998.94;4938703;28;45523;-83
2022/10/31 06:13:08;;;;;;;;;20.33;18.33;;;;;15.90;100.00;100981.09;4936483;28;44878;-83
2022/10/31 06:15:34;;;;;;;;;19.33;19.33;;;;;15.92;100.00;100987.34;4936353;28;45366;-82
2022/10/31 06:18:02;;;;;;;;;20.67;20.67;;;;;15.88;100.00;100970.38;4936000;28;44795;-83
2022/10/31 06:20:28;;;;;;;;;18.00;17.33;;;;;15.96;100.00;100979.28;4937567;28;47019;-82
2022/10/31 06:22:53;;;;;;;;;19.67;18.67;;;;;16.03;100.00;100990.88;4950374;28;45452;-82
2022/10/31 06:25:19;;;;;;;;;19.00;17.67;;;;;16.05;100.00;100983.69;4954197;28;45371;-83
2022/10/31 06:27:48;;;;;;;;;19.00;19.00;;;;;16.05;100.00;100983.69;4954904;28;45510;-83
2022/10/31 06:30:14;;;;;;;;;16.67;14.33;;;;;16.00;100.00;100975.69;4937542;28;46898;-81
2022/10/31 06:32:40;;;;;;;;;17.33;16.00;;;;;16.06;100.00;100981.91;4936753;28;45353;-82
2022/10/31 06:35:11;;;;;;;;;16.33;15.00;;;;;15.98;100.00;100971.25;4937972;28;44840;-82
2022/10/31 06:37:37;;;;;;;;;14.67;14.67;;;;;16.00;100.00;100974.81;4956206;28;45184;-82
2022/10/31 06:40:03;;;;;;;;;17.33;15.33;;;;;16.04;100.00;100981.03;4940151;28;46674;-82
2022/10/31 06:42:31;;;;;;;;;14.33;14.33;;;;;15.98;100.00;100971.25;4956589;28;45271;-82
2022/10/31 06:44:58;;;;;;;;;20.33;14.33;;;;;15.98;100.00;100976.59;4956083;28;45314;-83
2022/10/31 06:47:24;;;;;;;;;14.00;12.33;;;;;16.00;100.00;100977.47;4938913;28;45474;-83
2022/10/31 06:49:49;;;;;;;;;17.00;15.00;;;;;15.99;100.00;100973.00;4954546;28;45502;-82
2022/10/31 06:52:17;;;;;;;;;15.33;15.00;;;;;15.98;100.00;100972.13;4954684;28;45345;-82
2022/10/31 06:54:43;;;;;;;;;13.33;13.33;;;;;15.92;100.00;100952.50;4953908;28;44839;-83
2022/10/31 06:57:16;;;;;;;;;15.67;15.67;;;;;15.94;100.00;100964.09;4955195;28;45432;-82
2022/10/31 06:59:41;;;;;;;;;16.00;15.00;;;;;15.99;100.00;100973.00;4937800;28;47017;-83
2022/10/31 07:02:09;;;;;;;;;16.33;14.33;;;;;15.95;100.00;100957.81;4955787;28;44829;-83
2022/10/31 07:04:35;;;;;;;;;16.00;14.33;;;;;16.05;100.00;100970.28;4938898;28;44731;-83
2022/10/31 07:07:01;;;;;;;;;20.33;15.67;;;;;16.11;100.00;100956.84;4939864;28;45048;-83
2022/10/31 07:09:26;;;;;;;;;17.33;17.33;;;;;16.14;100.00;100951.47;4940883;28;46913;-83
2022/10/31 07:11:56;;;;;;;;;18.00;16.67;;;;;16.18;100.00;100952.34;4940751;28;45381;-82
2022/10/31 07:14:21;;;;;;;;;18.33;17.33;;;;;16.25;100.00;100950.53;4958009;28;45396;-82
2022/10/31 07:16:50;;;;;;;;;18.33;18.33;;;;;16.29;100.00;100958.53;4956179;28;45506;-84
2022/10/31 07:19:17;;;;;;;;;17.00;17.00;;;;;16.28;100.00;100951.41;4936429;28;48570;-84
2022/10/31 07:21:42;;;;;;;;;21.67;19.67;;;;;16.33;100.00;100957.63;4936736;28;45697;-85
2022/10/31 07:24:08;;;;;;;;;22.00;21.00;;;;;16.35;100.00;100958.50;4935108;28;45330;-84
2022/10/31 07:26:35;;;;;;;;;19.33;18.00;;;;;16.19;100.00;100921.91;4936575;28;45489;-82
2022/10/31 07:29:21;;;;;;;;;22.00;22.00;;;;;16.39;100.00;100954.88;4953901;28;46989;-82
2022/10/31 07:31:48;;;;;;;;;20.67;20.00;;;;;16.39;100.00;100962.06;4937734;28;45434;-81
2022/10/31 07:34:14;;;;;;;;;22.67;22.67;;;;;16.23;100.00;100923.69;4936491;28;45398;-81
2022/10/31 07:36:46;;;;;;;;;21.00;20.67;;;;;16.45;100.00;100945.91;4936385;28;44906;-82
2022/10/31 07:39:15;;;;;;;;;18.00;18.00;;;;;16.32;100.00;100923.63;4936601;28;45558;-82
2022/10/31 07:41:43;;;;;;;;;17.67;17.67;;;;;16.54;100.00;100951.22;4936267;28;44712;-82
2022/10/31 07:44:09;;;;;;;;;16.67;14.67;;;;;16.47;100.00;100937.84;4937780;28;45421;-82
2022/10/31 07:46:37;;;;;;;;;15.67;14.00;;;;;16.30;100.00;100900.38;4938383;28;44861;-82
2022/10/31 07:49:06;;;;;;;;;18.67;17.67;;;;;16.58;100.00;100955.69;4954809;28;45520;-81
2022/10/31 07:51:37;;;;;;;;;19.33;18.33;;;;;16.34;100.00;100918.22;4938828;28;45362;-83
2022/10/31 07:54:05;;;;;;;;;20.67;18.00;;;;;16.51;100.00;100940.50;4938551;28;44732;-82
2022/10/31 07:56:47;;;;;;;;;19.67;18.67;;;;;16.51;100.00;100934.25;4938260;28;44819;-83
2022/10/31 07:59:13;;;;;;;;;19.00;18.33;;;;;16.59;100.00;100952.06;4937528;28;45562;-81
2022/10/31 08:01:39;;;;;;;;;23.00;20.33;;;;;16.34;100.00;100900.38;4937619;28;44814;-82
2022/10/31 08:04:05;;;;;;;;;18.00;17.00;;;;;16.66;100.00;100949.34;4939212;28;45344;-82
2022/10/31 08:06:56;;;;;;;;;20.00;19.67;;;;;16.55;100.00;100919.91;4939028;28;45366;-83
2022/10/31 08:09:22;;;;;;;;;18.33;18.00;;;;;16.64;100.00;100921.59;4937125;28;47349;-82
2022/10/31 08:11:50;;;;;;;;;20.67;20.67;;;;;16.69;100.00;100911.72;4934335;28;45419;-82
2022/10/31 08:14:18;;;;;;;;;22.00;22.00;;;;;16.83;100.00;100935.81;4936871;28;44746;-82
2022/10/31 08:16:44;;;;;;;;;22.67;21.00;;;;;16.83;100.00;100934.03;4935026;28;44913;-81
2022/10/31 08:19:11;;;;;;;;;21.67;20.67;;;;;16.77;100.00;100921.50;4944537;28;45543;-81
2022/10/31 08:21:38;;;;;;;;;22.00;21.33;;;;;16.80;100.00;100910.75;4952946;28;45461;-80
2022/10/31 08:24:04;;;;;;;;;18.67;18.67;;;;;16.77;100.00;100891.06;4937703;28;45408;-81
2022/10/31 08:26:49;;;;;;;;;19.00;18.67;;;;;16.95;100.00;100925.84;4957060;28;44910;-83
2022/10/31 08:29:16;;;;;;;;;21.67;21.67;;;;;16.97;100.00;100913.28;4932581;28;46594;-81
2022/10/31 08:31:46;;;;;;;;;20.00;17.67;;;;;17.02;100.00;100913.25;4948634;28;45359;-81
2022/10/31 08:34:37;;;;;;;;;21.00;19.00;;;;;16.96;100.00;100884.63;4943963;28;44892;-80
2022/10/31 08:37:02;;;;;;;;;19.00;17.00;;;;;17.05;100.00;100891.72;4955258;28;45661;-81
2022/10/31 08:39:28;;;;;;;;;22.33;19.00;;;;;17.06;100.00;100895.31;4955256;28;46326;-82
2022/10/31 08:52:40;;;;;;;;;24.33;21.33;;;;;17.11;100.00;100867.47;4954670;28;45686;-83
2022/10/31 08:55:06;;;;;;;;;23.33;23.00;;;;;17.13;100.00;100862.09;4949829;28;45429;-83
2022/10/31 08:57:45;;;;;;;;;22.00;19.33;;;;;17.20;100.00;100856.59;4954502;28;44928;-79
2022/10/31 09:03:15;;;;;;;;;22.33;21.33;;;;;17.06;100.00;100809.31;4876820;29;45223;-82
2022/10/31 09:06:08;;;;;;;;;25.00;22.67;;;;;17.34;100.00;100843.00;4896847;29;44781;-84
2022/10/31 09:08:35;;;;;;;;;21.33;19.67;;;;;17.39;100.00;100830.41;4881725;29;44896;-83
2022/10/31 09:11:06;;;;;;;;;29.00;26.67;;;;;17.40;100.00;100818.72;4898255;29;44904;-83
2022/10/31 09:13:33;;;;;;;;;28.00;26.67;;;;;17.55;100.00;100832.88;4893856;29;45465;-83
2022/10/31 09:15:59;;;;;;;;;22.00;21.67;;;;;17.59;100.00;100824.78;4901781;29;45915;-83
2022/10/31 09:22:20;;;;;;;;;21.00;20.00;;;;;17.73;100.00;100829.06;4897402;29;45787;-82
2022/10/31 09:24:55;;;;;;;;;30.67;24.67;;;;;17.67;100.00;100799.56;4893399;29;45336;-83
2022/10/31 09:27:24;;;;;;;;;26.67;26.67;;;;;17.80;100.00;100810.13;4897786;29;44846;-82
2022/10/31 09:29:55;;;;;;;;;26.33;22.67;;;;;17.75;100.00;100790.50;4882084;28;45748;-84
2022/10/31 09:32:54;;;;;;;;;23.33;22.00;;;;;17.86;100.00;100792.16;4936012;28;44843;-83
2022/10/31 09:35:29;;;;;;;;;22.33;22.33;;;;;17.82;100.00;100782.31;4925198;28;45464;-83
2022/10/31 09:38:08;;;;;;;;;29.33;28.00;;;;;17.88;100.00;100784.97;4936562;28;44830;-83
2022/10/31 09:44:21;;;;;;;;;28.00;24.33;;;;;17.95;100.00;100775.84;4877190;29;44885;-81
2022/10/31 09:47:33;;;;;;;;;25.33;22.33;;;;;18.02;100.00;100780.25;4877027;29;46512;-82
2022/10/31 09:50:38;;;;;;;;;27.33;26.33;;;;;18.03;100.00;100782.00;4860349;29;44812;-83
2022/10/31 09:53:49;;;;;;;;;;;;;;;;;;;;;
2022/10/31 09:56:24;;;;;;;;;22.67;22.00;;;;;18.03;100.00;100773.06;4865412;29;64975;-82
2022/10/31 10:06:02;;;;;;;;;25.00;22.00;;;;;17.87;100.00;100748.19;4876358;29;45367;-85
2022/10/31 10:09:15;;;;;;;;;25.33;24.33;;;;;18.08;100.00;100765.81;4877785;29;44872;-84
2022/10/31 10:11:46;;;;;;;;;28.00;23.00;;;;;18.09;100.00;100749.59;4868690;29;45553;-82
2022/10/31 10:14:51;;;;;;;;;24.67;23.67;;;;;17.98;100.00;100709.44;4870542;29;44803;-83
2022/10/31 10:21:37;;;;;;;;;22.67;22.00;;;;;18.33;100.00;100713.28;4905492;28;45447;-83
2022/10/31 10:24:30;;;;;;;;;24.33;21.33;;;;;18.37;100.00;100700.66;4944197;28;46660;-84
2022/10/31 10:27:10;;;;;;;;;27.33;25.33;;;;;18.40;100.00;100703.31;4938417;28;45379;-85
2022/10/31 10:36:57;;;;;;;;;22.33;22.00;;;;;18.65;100.00;100692.94;4882504;29;45414;-84
2022/10/31 10:40:21;;;;;;;;;23.67;23.00;;;;;18.62;100.00;100655.28;4879059;29;45379;-84
2022/10/31 10:43:49;;;;;;;;;26.67;23.00;;;;;18.83;100.00;100682.75;4871993;29;45504;-83
2022/10/31 10:49:57;;;;;;;;;25.33;23.00;;;;;19.02;100.00;100670.63;4864685;29;45790;-84
2022/10/31 10:52:34;;;;;;;;;26.00;21.00;;;;;19.12;100.00;100669.50;4863505;29;44980;-83
2022/10/31 10:55:32;;;;;;;;;21.00;19.33;;;;;18.97;100.00;100597.97;4867399;29;45459;-84
2022/10/31 10:58:21;;;;;;;;;24.00;22.67;;;;;19.38;100.00;100624.88;4858251;29;45845;-83
2022/10/31 11:01:08;;;;;;;;;18.00;18.00;;;;;19.32;100.00;100585.47;4862316;29;45587;-84
2022/10/31 11:03:48;;;;;;;;;24.00;22.50;;;;;19.41;100.00;100597.84;4878628;29;45486;-84
2022/10/31 11:06:28;;;;;;;;;20.00;20.00;;;;;19.16;100.00;100566.06;4865602;29;44738;-85
2022/10/31 11:09:10;;;;;;;;;18.67;18.00;;;;;19.24;100.00;100582.06;4880592;29;45469;-87
2022/10/31 11:11:38;;;;;;;;;23.67;22.00;;;;;19.35;100.00;100593.50;4878884;29;45278;-84
2022/10/31 11:14:20;;;;;;;;;18.00;14.00;;;;;19.34;100.00;100578.22;4923784;28;44860;-84
2022/10/31 11:17:07;;;;;;;;;29.33;26.33;;;;;19.26;100.00;100561.34;4925543;28;44914;-84
2022/10/31 11:20:27;;;;;;;;;19.33;17.67;;;;;19.44;100.00;100586.09;4938846;28;45380;-84
2022/10/31 11:23:22;;;;;;;;;20.00;16.67;;;;;19.44;100.00;100586.09;4910216;29;46536;-84
2022/10/31 11:26:25;;;;;;;;;22.00;19.67;;;;;19.48;100.00;100585.97;4916862;29;45426;-83
2022/10/31 11:28:59;;;;;;;;;17.00;17.00;;;;;19.52;100.00;100584.09;4916655;29;45442;-84
2022/10/31 11:31:41;;;;;;;;;18.67;18.00;;;;;19.34;100.00;100550.38;4900435;29;44889;-84
2022/10/31 11:34:44;;;;;;;;;19.67;18.33;;;;;19.49;100.00;100570.66;4899578;29;46690;-83
2022/10/31 11:37:28;;;;;;;;;16.67;15.33;;;;;19.57;100.00;100576.75;4878685;29;45409;-83
2022/10/31 11:40:16;;;;;;;;;16.67;15.67;;;;;19.55;100.00;100552.53;4863298;29;45396;-83
2022/10/31 11:42:51;;;;;;;;;20.00;16.00;;;;;19.43;100.00;100524.97;4876391;29;44898;-83
2022/10/31 11:45:33;;;;;;;;;18.33;16.33;;;;;19.63;100.00;100549.63;4881163;29;45690;-84
2022/10/31 11:48:22;;;;;;;;;18.67;18.00;;;;;19.72;100.00;100557.50;4897734;29;44847;-82
2022/10/31 11:51:08;;;;;;;;;16.00;15.00;;;;;19.56;100.00;100513.84;4882204;29;45322;-83
2022/10/31 11:53:38;;;;;;;;;10.00;10.00;;;;;19.75;100.00;100525.06;4898761;29;45446;-83
2022/10/31 11:56:33;;;;;;;;;17.00;14.67;;;;;19.79;100.00;100536.63;4867877;29;46294;-83
2022/10/31 11:59:06;;;;;;;;;18.67;16.00;;;;;19.59;100.00;100485.88;4893857;29;44852;-83
2022/10/31 12:01:39;;;;;;;;;18.00;14.00;;;;;19.65;100.00;100499.19;4881140;29;44932;-83
2022/10/31 12:04:13;;;;;;;;;19.00;19.00;;;;;19.77;100.00;100503.41;4879650;29;45389;-82
2022/10/31 12:06:58;;;;;;;;;15.33;15.33;;;;;19.95;100.00;100524.47;4882353;29;46407;-82
2022/10/31 12:09:32;;;;;;;;;18.33;16.67;;;;;19.76;100.00;100491.75;4898308;29;45383;-84
2022/10/31 12:12:50;;;;;;;;;;;;;;;;;;;;;
2022/10/31 12:15:38;;;;;;;;;14.00;13.33;;;;;19.97;100.00;100525.31;4876574;29;64970;-84
2022/10/31 12:22:11;;;;;;;;;18.67;17.00;;;;;20.10;100.00;100511.50;4827496;29;45432;-84
2022/10/31 12:25:08;;;;;;;;;16.33;14.00;;;;;20.17;100.00;100503.16;4842023;29;45527;-84
2022/10/31 12:28:27;;;;;;;;;21.33;18.67;;;;;20.24;100.00;100502.97;4843898;29;44826;-84
2022/10/31 12:31:07;;;;;;;;;14.00;13.00;;;;;20.32;100.00;100495.53;4842360;29;46946;-84
2022/10/31 12:34:00;;;;;;;;;14.67;14.00;;;;;20.37;100.00;100489.06;4826293;29;45552;-85